Time;durP1;ratioP1;P1;durP2;ratioP2;P2;SDS_P1;SDS_P2;PMS_P1;PMS_P2;Temp;Humidity;BMP_temperature;BMP_pressure;BME280_temperature;BME280_humidity;BME280_pressure;Samples;Min_cycle;Max_cycle;Signal;HPM_P1;HPM_P2
2023/08/17 00:01:00;;;;;;;1999.90;999.90;;;21.00;99.90;;;;;;5074884;28;20043;-71
2023/08/17 00:03:25;;;;;;;1999.90;999.90;;;21.00;99.90;;;;;;5071896;28;20143;-72
2023/08/17 00:05:51;;;;;;;1999.90;999.90;;;21.00;99.90;;;;;;5072570;28;20048;-71
2023/08/17 00:08:17;;;;;;;1999.90;999.90;;;21.00;99.90;;;;;;5076395;28;20020;-72
2023/08/17 00:10:43;;;;;;;1999.90;999.90;;;21.00;99.90;;;;;;5081898;28;20479;-72
2023/08/17 00:13:08;;;;;;;1999.90;999.90;;;21.00;99.90;;;;;;5074235;28;20029;-72
2023/08/17 00:15:34;;;;;;;1999.90;999.90;;;21.00;99.90;;;;;;5081678;28;20032;-72
2023/08/17 00:17:59;;;;;;;1999.90;999.90;;;21.00;99.90;;;;;;5070304;28;20017;-72
2023/08/17 00:20:25;;;;;;;1999.90;999.90;;;21.00;99.90;;;;;;5069937;28;20032;-72
2023/08/17 00:22:50;;;;;;;1999.90;999.90;;;21.00;99.90;;;;;;5072209;28;20154;-72
2023/08/17 00:25:16;;;;;;;1999.90;999.90;;;21.00;99.90;;;;;;5067538;28;20479;-72
2023/08/17 00:27:42;;;;;;;1999.90;999.90;;;21.00;99.90;;;;;;5069073;28;20031;-72
2023/08/17 00:30:08;;;;;;;1999.90;999.90;;;21.00;99.90;;;;;;5071784;28;20103;-72
2023/08/17 00:32:33;;;;;;;1999.90;999.90;;;21.00;99.90;;;;;;5070082;28;20434;-72
2023/08/17 00:34:59;;;;;;;1999.90;999.90;;;21.00;99.90;;;;;;5069101;28;20020;-72
2023/08/17 00:37:25;;;;;;;1999.90;999.90;;;21.00;99.90;;;;;;5073327;28;20029;-72
2023/08/17 00:39:50;;;;;;;1999.90;999.90;;;21.00;99.90;;;;;;5066994;28;20039;-72
2023/08/17 00:42:16;;;;;;;1999.90;999.90;;;20.90;99.90;;;;;;5072115;28;20029;-72
2023/08/17 00:44:41;;;;;;;1999.90;999.90;;;20.90;99.90;;;;;;5074058;28;20380;-72
2023/08/17 00:47:07;;;;;;;1999.90;999.90;;;20.90;99.90;;;;;;5066485;28;20147;-72
2023/08/17 00:49:34;;;;;;;1999.90;999.90;;;20.90;99.90;;;;;;5072074;28;20017;-72
2023/08/17 00:52:01;;;;;;;1999.90;999.90;;;20.90;99.90;;;;;;5071334;28;20025;-72
2023/08/17 00:54:29;;;;;;;1999.90;999.90;;;20.90;99.90;;;;;;5072726;28;20078;-72
2023/08/17 00:56:55;;;;;;;1999.90;999.90;;;20.90;99.90;;;;;;5068216;28;20466;-72
2023/08/17 00:59:22;;;;;;;1999.90;999.90;;;20.90;99.90;;;;;;5067663;28;20100;-72
2023/08/17 01:01:48;;;;;;;1999.90;999.90;;;20.90;99.90;;;;;;5066435;28;20468;-72
2023/08/17 01:04:14;;;;;;;1999.90;999.90;;;20.80;99.90;;;;;;5073678;28;20051;-72
2023/08/17 01:06:39;;;;;;;1999.90;999.90;;;20.80;99.90;;;;;;5067992;28;20103;-72
2023/08/17 01:09:06;;;;;;;1999.90;999.90;;;20.80;99.90;;;;;;5077000;28;20027;-72
2023/08/17 01:11:41;;;;;;;1999.90;999.90;;;20.90;99.90;;;;;;5078635;28;20033;-72
2023/08/17 01:14:17;;;;;;;1999.90;999.90;;;20.80;99.90;;;;;;5072638;28;20054;-72
2023/08/17 01:16:52;;;;;;;1999.90;999.90;;;20.80;99.90;;;;;;5079237;28;20028;-72
2023/08/17 01:19:26;;;;;;;1999.90;999.90;;;20.80;99.90;;;;;;5067137;28;20406;-72
2023/08/17 01:21:57;;;;;;;1999.90;999.90;;;20.80;99.90;;;;;;5071282;28;20052;-72
2023/08/17 01:24:23;;;;;;;1999.90;999.90;;;20.80;99.90;;;;;;5069982;28;20491;-72
2023/08/17 01:26:49;;;;;;;1999.90;999.90;;;20.80;99.90;;;;;;5066703;28;20035;-72
2023/08/17 01:29:15;;;;;;;1999.90;999.90;;;20.80;99.90;;;;;;5069889;28;20025;-72
2023/08/17 01:32:02;;;;;;;1999.90;999.90;;;20.80;99.90;;;;;;5066783;28;20013;-72
2023/08/17 01:34:32;;;;;;;1999.90;999.90;;;20.70;99.90;;;;;;5069008;28;20755;-72
2023/08/17 01:37:01;;;;;;;1999.90;999.90;;;20.70;99.90;;;;;;5066937;28;20554;-71
2023/08/17 01:39:34;;;;;;;1999.90;999.90;;;20.60;99.90;;;;;;5072036;28;20402;-71
2023/08/17 01:42:01;;;;;;;1999.90;999.90;;;20.60;99.90;;;;;;5069112;28;20029;-72
2023/08/17 01:44:27;;;;;;;1999.90;999.90;;;20.60;99.90;;;;;;5067787;28;20426;-72
2023/08/17 01:46:53;;;;;;;1999.90;999.90;;;20.50;99.90;;;;;;5071647;28;20087;-72
2023/08/17 01:49:18;;;;;;;1999.90;999.90;;;20.50;99.90;;;;;;5066834;28;20172;-72
2023/08/17 01:51:44;;;;;;;1999.90;999.90;;;20.50;99.90;;;;;;5068790;28;20060;-72
2023/08/17 01:54:10;;;;;;;1999.90;999.90;;;20.50;99.90;;;;;;5069405;28;20052;-72
2023/08/17 01:56:35;;;;;;;1999.90;999.90;;;20.50;99.90;;;;;;5070707;28;20027;-72
2023/08/17 01:59:01;;;;;;;1999.90;999.90;;;20.40;99.90;;;;;;5070650;28;20048;-72
2023/08/17 02:01:26;;;;;;;1999.90;999.90;;;20.50;99.90;;;;;;5073011;28;20017;-72
2023/08/17 02:03:52;;;;;;;1999.90;999.90;;;20.50;99.90;;;;;;5069721;28;20120;-72
2023/08/17 02:06:18;;;;;;;1999.90;999.90;;;20.50;99.90;;;;;;5068271;28;20028;-72
2023/08/17 02:08:45;;;;;;;1999.90;999.90;;;20.50;99.90;;;;;;5073408;28;20064;-72
2023/08/17 02:11:11;;;;;;;1999.90;999.90;;;20.50;99.90;;;;;;5079807;28;20024;-72
2023/08/17 02:13:37;;;;;;;1999.90;999.90;;;20.50;99.90;;;;;;5079913;28;20041;-72
2023/08/17 02:16:04;;;;;;;1999.90;999.90;;;20.50;99.90;;;;;;5078351;28;20032;-72
2023/08/17 02:18:31;;;;;;;1999.90;999.90;;;20.50;99.90;;;;;;5067798;28;20109;-72
2023/08/17 02:20:57;;;;;;;1999.90;999.90;;;20.50;99.90;;;;;;5072745;28;20081;-72
2023/08/17 02:23:22;;;;;;;1999.90;999.90;;;20.50;99.90;;;;;;5071342;28;20103;-72
2023/08/17 02:25:48;;;;;;;1999.90;999.90;;;20.50;99.90;;;;;;5065801;28;20048;-71
2023/08/17 02:28:14;;;;;;;1999.90;999.90;;;20.50;99.90;;;;;;5067929;28;20085;-72
2023/08/17 02:30:39;;;;;;;1999.90;999.90;;;20.40;99.90;;;;;;5069279;28;20025;-71
2023/08/17 02:33:05;;;;;;;1999.90;999.90;;;20.40;99.90;;;;;;5068246;28;20036;-72
2023/08/17 02:35:31;;;;;;;1999.90;999.90;;;20.40;99.90;;;;;;5069420;28;20024;-72
2023/08/17 02:37:56;;;;;;;1999.90;999.90;;;20.40;99.90;;;;;;5067507;28;20055;-72
2023/08/17 02:40:22;;;;;;;1999.90;999.90;;;20.40;99.90;;;;;;5069216;28;20028;-72
2023/08/17 02:42:48;;;;;;;1999.90;999.90;;;20.40;99.90;;;;;;5067498;28;20037;-72
2023/08/17 02:45:13;;;;;;;1999.90;999.90;;;20.50;99.90;;;;;;5068653;28;20026;-72
2023/08/17 02:47:39;;;;;;;1999.90;999.90;;;20.60;99.90;;;;;;5068185;28;20031;-72
2023/08/17 02:50:05;;;;;;;1999.90;999.90;;;20.60;99.90;;;;;;5070329;28;20020;-71
2023/08/17 02:52:31;;;;;;;1999.90;999.90;;;20.70;99.90;;;;;;5068141;28;20026;-72
2023/08/17 02:54:56;;;;;;;1999.90;999.90;;;20.70;99.90;;;;;;5070147;28;20059;-72
2023/08/17 02:57:22;;;;;;;1999.90;999.90;;;20.80;99.90;;;;;;5070113;28;20112;-72
2023/08/17 02:59:48;;;;;;;1999.90;999.90;;;20.80;99.90;;;;;;5067946;28;20021;-72
2023/08/17 03:02:14;;;;;;;1999.90;999.90;;;20.80;99.90;;;;;;5066528;28;20087;-72
2023/08/17 03:04:39;;;;;;;1999.90;999.90;;;20.80;99.90;;;;;;5069565;28;20032;-72
2023/08/17 03:07:05;;;;;;;1999.90;999.90;;;20.80;99.90;;;;;;5069644;28;20032;-72
2023/08/17 03:09:31;;;;;;;1999.90;999.90;;;20.80;99.90;;;;;;5069373;28;20414;-72
2023/08/17 03:11:56;;;;;;;1999.90;999.90;;;20.80;99.90;;;;;;5078173;28;20020;-72
2023/08/17 03:14:22;;;;;;;1999.90;999.90;;;20.80;99.90;;;;;;5074721;28;20053;-71
2023/08/17 03:16:47;;;;;;;1999.90;999.90;;;20.60;99.90;;;;;;5083887;28;20029;-72
2023/08/17 03:19:13;;;;;;;1999.90;999.90;;;20.50;99.90;;;;;;5070564;28;20475;-72
2023/08/17 03:21:39;;;;;;;1999.90;999.90;;;20.40;99.90;;;;;;5071863;28;20055;-72
2023/08/17 03:24:05;;;;;;;1999.90;999.90;;;20.30;99.90;;;;;;5073719;28;20487;-72
2023/08/17 03:26:30;;;;;;;1999.90;999.90;;;20.20;99.90;;;;;;5075211;28;20058;-72
2023/08/17 03:28:56;;;;;;;1999.90;999.90;;;20.10;99.90;;;;;;5070166;28;20078;-72
2023/08/17 03:31:22;;;;;;;1999.90;999.90;;;20.10;99.90;;;;;;5069631;28;20035;-72
2023/08/17 03:33:48;;;;;;;1999.90;999.90;;;20.00;99.90;;;;;;5066615;28;20028;-72
2023/08/17 03:36:14;;;;;;;1999.90;999.90;;;20.00;99.90;;;;;;5069504;28;20138;-72
2023/08/17 03:38:39;;;;;;;1999.90;999.90;;;19.90;99.90;;;;;;5069760;28;20091;-72
2023/08/17 03:41:06;;;;;;;1999.90;999.90;;;19.90;99.90;;;;;;5069652;28;20024;-72
2023/08/17 03:43:31;;;;;;;1999.90;999.90;;;19.90;99.90;;;;;;5070523;28;20590;-72
2023/08/17 03:45:57;;;;;;;1999.90;999.90;;;19.90;99.90;;;;;;5067369;28;20374;-72
2023/08/17 03:48:23;;;;;;;1999.90;999.90;;;19.90;99.90;;;;;;5071607;28;20380;-72
2023/08/17 03:50:53;;;;;;;1999.90;999.90;;;19.80;99.90;;;;;;5071907;28;20158;-72
2023/08/17 03:53:19;;;;;;;1999.90;999.90;;;19.80;99.90;;;;;;5055260;28;20395;-72
2023/08/17 03:55:51;;;;;;;1999.90;999.90;;;19.80;99.90;;;;;;5075367;28;20036;-72
2023/08/17 03:58:18;;;;;;;1999.90;999.90;;;19.70;99.90;;;;;;5071697;28;20055;-72
2023/08/17 04:00:50;;;;;;;1999.90;999.90;;;19.70;99.90;;;;;;5069023;28;20029;-72
2023/08/17 04:03:16;;;;;;;1999.90;999.90;;;19.60;99.90;;;;;;5068445;28;20041;-72
2023/08/17 04:05:42;;;;;;;1999.90;999.90;;;19.60;99.90;;;;;;5071285;28;20103;-72
2023/08/17 04:08:08;;;;;;;1999.90;999.90;;;19.60;99.90;;;;;;5070803;28;20066;-72
2023/08/17 04:10:33;;;;;;;1999.90;999.90;;;19.50;99.90;;;;;;5074932;28;20532;-72
2023/08/17 04:12:59;;;;;;;1999.90;999.90;;;19.50;99.90;;;;;;5074850;28;20067;-71
2023/08/17 04:15:25;;;;;;;1999.90;999.90;;;19.50;99.90;;;;;;5080324;28;20039;-72
2023/08/17 04:17:50;;;;;;;1999.90;999.90;;;19.40;99.90;;;;;;5069329;28;20032;-71
2023/08/17 04:20:18;;;;;;;1999.90;999.90;;;19.40;99.90;;;;;;5072207;28;20032;-71
2023/08/17 04:22:43;;;;;;;1999.90;999.90;;;19.30;99.90;;;;;;5070360;28;20108;-72
2023/08/17 04:25:09;;;;;;;1999.90;999.90;;;19.30;99.90;;;;;;5068974;28;20123;-72
2023/08/17 04:27:35;;;;;;;1999.90;999.90;;;19.20;99.90;;;;;;5071960;28;20539;-72
2023/08/17 04:30:01;;;;;;;1999.90;999.90;;;19.20;99.90;;;;;;5073253;28;20115;-72
2023/08/17 04:32:26;;;;;;;1999.90;999.90;;;19.20;99.90;;;;;;5071080;28;20013;-72
2023/08/17 04:34:52;;;;;;;1999.90;999.90;;;19.20;99.90;;;;;;5067124;28;20090;-72
2023/08/17 04:37:18;;;;;;;1999.90;999.90;;;19.20;99.90;;;;;;5072378;28;20124;-72
2023/08/17 04:39:44;;;;;;;1999.90;999.90;;;19.20;99.90;;;;;;5079615;28;20036;-72
2023/08/17 04:42:09;;;;;;;1999.90;999.90;;;19.20;99.90;;;;;;5081118;28;20055;-72
2023/08/17 04:44:35;;;;;;;1999.90;999.90;;;19.20;99.90;;;;;;5084750;28;20028;-72
2023/08/17 04:47:01;;;;;;;1999.90;999.90;;;19.30;99.90;;;;;;5066861;28;20064;-72
2023/08/17 04:49:27;;;;;;;1999.90;999.90;;;19.20;99.90;;;;;;5070466;28;20020;-72
2023/08/17 04:51:53;;;;;;;1999.90;999.90;;;19.20;99.90;;;;;;5072299;28;20061;-72
2023/08/17 04:54:18;;;;;;;1999.90;999.90;;;19.20;99.90;;;;;;5080340;28;20044;-72
2023/08/17 04:56:44;;;;;;;1999.90;999.90;;;19.20;99.90;;;;;;5074865;28;20052;-72
2023/08/17 04:59:10;;;;;;;1999.90;999.90;;;19.20;99.90;;;;;;5068470;28;20036;-72
2023/08/17 05:01:36;;;;;;;1999.90;999.90;;;19.20;99.90;;;;;;5066403;28;20551;-72
2023/08/17 05:04:02;;;;;;;1999.90;999.90;;;19.20;99.90;;;;;;5071882;28;20040;-71
2023/08/17 05:06:29;;;;;;;1999.90;999.90;;;19.20;99.90;;;;;;5073365;28;20024;-72
2023/08/17 05:08:55;;;;;;;1999.90;999.90;;;19.10;99.90;;;;;;5068428;28;20585;-72
2023/08/17 05:11:20;;;;;;;1999.90;999.90;;;19.10;99.90;;;;;;5068848;28;20074;-72
2023/08/17 05:13:46;;;;;;;1999.90;999.90;;;19.10;99.90;;;;;;5073973;28;20418;-72
2023/08/17 05:16:11;;;;;;;1999.90;999.90;;;19.00;99.90;;;;;;5083963;28;20085;-72
2023/08/17 05:18:37;;;;;;;1999.90;999.90;;;19.10;99.90;;;;;;5068957;28;20475;-72
2023/08/17 05:21:03;;;;;;;1999.90;999.90;;;19.10;99.90;;;;;;5066364;28;20028;-72
2023/08/17 05:23:28;;;;;;;1999.90;999.90;;;19.10;99.90;;;;;;5084687;28;20107;-72
2023/08/17 05:25:54;;;;;;;1999.90;999.90;;;19.10;99.90;;;;;;5073068;28;20028;-72
2023/08/17 05:28:20;;;;;;;1999.90;999.90;;;19.10;99.90;;;;;;5065183;28;20051;-72
2023/08/17 05:30:46;;;;;;;1999.90;999.90;;;19.10;99.90;;;;;;5068084;28;20055;-72
2023/08/17 05:33:12;;;;;;;1999.90;999.90;;;19.10;99.90;;;;;;5069795;28;20391;-72
2023/08/17 05:35:37;;;;;;;1999.90;999.90;;;19.20;99.90;;;;;;5070757;28;20025;-72
2023/08/17 05:38:03;;;;;;;1999.90;999.90;;;19.20;99.90;;;;;;5072287;28;20032;-72
2023/08/17 05:40:30;;;;;;;1999.90;999.90;;;19.20;99.90;;;;;;5067216;28;20072;-72
2023/08/17 05:42:56;;;;;;;1999.90;999.90;;;19.20;99.90;;;;;;5072597;28;20081;-72
2023/08/17 05:45:22;;;;;;;1999.90;999.90;;;19.20;99.90;;;;;;5068796;28;20115;-72
2023/08/17 05:47:47;;;;;;;1999.90;999.90;;;19.30;99.90;;;;;;5068880;28;20040;-72
2023/08/17 05:50:13;;;;;;;1999.90;999.90;;;19.30;99.90;;;;;;5067271;28;20036;-72
2023/08/17 05:52:39;;;;;;;1999.90;999.90;;;19.40;99.90;;;;;;5075340;28;20402;-72
2023/08/17 05:55:05;;;;;;;1999.90;999.90;;;19.50;99.90;;;;;;5069671;28;20503;-72
2023/08/17 05:57:31;;;;;;;1999.90;999.90;;;19.60;99.90;;;;;;5070251;28;20039;-72
2023/08/17 05:59:56;;;;;;;1999.90;999.90;;;19.70;99.90;;;;;;5068211;28;20107;-72
2023/08/17 06:02:22;;;;;;;1999.90;999.90;;;19.80;99.90;;;;;;5070819;28;20048;-72
2023/08/17 06:04:48;;;;;;;1999.90;999.90;;;19.90;99.90;;;;;;5066711;28;20072;-72
2023/08/17 06:07:15;;;;;;;1999.90;999.90;;;20.00;99.90;;;;;;5067052;28;20557;-72
2023/08/17 06:09:40;;;;;;;1999.90;999.90;;;20.00;99.90;;;;;;5065485;28;20028;-72
2023/08/17 06:12:06;;;;;;;1999.90;999.90;;;20.10;99.90;;;;;;5068015;28;20036;-72
2023/08/17 06:14:33;;;;;;;1999.90;999.90;;;20.10;99.90;;;;;;5068810;28;20063;-71
2023/08/17 06:16:59;;;;;;;1999.90;999.90;;;20.20;99.90;;;;;;5074741;28;20020;-72
2023/08/17 06:19:24;;;;;;;1999.90;999.90;;;20.30;99.90;;;;;;5062581;28;20407;-72
2023/08/17 06:21:50;;;;;;;1999.90;999.90;;;20.40;99.90;;;;;;5072037;28;20035;-71
2023/08/17 06:24:15;;;;;;;1999.90;999.90;;;20.50;99.90;;;;;;5068846;28;20021;-72
2023/08/17 06:26:41;;;;;;;1999.90;999.90;;;20.70;99.90;;;;;;5062634;28;20116;-72
2023/08/17 06:29:07;;;;;;;1999.90;999.90;;;20.80;99.90;;;;;;5063750;28;20473;-72
2023/08/17 06:31:32;;;;;;;1999.90;999.90;;;20.90;99.90;;;;;;5079856;28;20036;-72
2023/08/17 06:33:58;;;;;;;1999.90;999.90;;;21.00;99.90;;;;;;5074399;28;20543;-72
2023/08/17 06:36:24;;;;;;;1999.90;999.90;;;21.10;99.90;;;;;;5089588;28;20032;-72
2023/08/17 06:38:49;;;;;;;1999.90;999.90;;;21.20;99.90;;;;;;5073191;28;20024;-72
2023/08/17 06:41:16;;;;;;;1999.90;999.90;;;21.30;99.90;;;;;;5070216;28;20111;-72
2023/08/17 06:43:42;;;;;;;1999.90;999.90;;;21.30;99.90;;;;;;5069825;28;20024;-72
2023/08/17 06:46:07;;;;;;;1999.90;999.90;;;21.40;99.90;;;;;;5070536;28;20147;-72
2023/08/17 06:48:33;;;;;;;1999.90;999.90;;;21.60;99.90;;;;;;5070348;28;20020;-72
2023/08/17 06:50:59;;;;;;;1999.90;999.90;;;21.70;99.90;;;;;;5074198;28;20417;-72
2023/08/17 06:53:24;;;;;;;1999.90;999.90;;;21.90;99.90;;;;;;5073870;28;20025;-72
2023/08/17 06:55:50;;;;;;;1999.90;999.90;;;22.00;99.90;;;;;;5074381;28;20111;-72
2023/08/17 06:58:16;;;;;;;1999.90;999.90;;;22.20;99.90;;;;;;5073722;28;20028;-72
2023/08/17 07:00:42;;;;;;;1999.90;999.90;;;22.40;99.90;;;;;;5086244;28;20024;-72
2023/08/17 07:03:08;;;;;;;1999.90;999.90;;;22.60;99.90;;;;;;5094172;28;20502;-72
2023/08/17 07:05:34;;;;;;;1999.90;999.90;;;22.70;99.90;;;;;;5073443;28;20074;-72
2023/08/17 07:08:00;;;;;;;1999.90;999.90;;;22.90;99.90;;;;;;5074053;28;20051;-72
2023/08/17 07:10:27;;;;;;;1999.90;999.90;;;23.00;99.90;;;;;;5082012;28;20055;-72
2023/08/17 07:12:53;;;;;;;1999.90;999.90;;;23.30;99.90;;;;;;5074223;28;20024;-72
2023/08/17 07:15:18;;;;;;;1999.90;999.90;;;23.50;99.90;;;;;;5073389;28;20114;-72
2023/08/17 07:17:44;;;;;;;1999.90;999.90;;;23.60;99.90;;;;;;5072208;28;20090;-72
2023/08/17 07:20:11;;;;;;;1999.90;999.90;;;23.70;99.90;;;;;;5072426;28;20035;-72
2023/08/17 07:22:36;;;;;;;1999.90;999.90;;;23.80;99.90;;;;;;5075675;28;20021;-72
2023/08/17 07:25:03;;;;;;;1999.90;999.90;;;24.00;99.90;;;;;;5069543;28;20058;-72
2023/08/17 07:27:29;;;;;;;1999.90;999.90;;;24.30;99.90;;;;;;5072116;28;20060;-72
2023/08/17 07:29:55;;;;;;;1999.90;999.90;;;24.40;99.90;;;;;;5070927;28;20067;-72
2023/08/17 07:32:21;;;;;;;1999.90;999.90;;;24.40;99.90;;;;;;5072696;28;20028;-72
2023/08/17 07:34:47;;;;;;;1999.90;999.90;;;24.40;99.90;;;;;;5072331;28;20024;-72
2023/08/17 07:37:13;;;;;;;1999.90;999.90;;;24.20;99.90;;;;;;5072966;28;20522;-72
2023/08/17 07:39:38;;;;;;;1999.90;999.90;;;24.20;99.90;;;;;;5072590;28;20024;-72
2023/08/17 07:42:04;;;;;;;1999.90;999.90;;;24.40;99.90;;;;;;5072219;28;20047;-72
2023/08/17 07:44:31;;;;;;;1999.90;999.90;;;24.40;99.90;;;;;;5071551;28;20158;-72
2023/08/17 07:46:57;;;;;;;1999.90;999.90;;;24.60;99.90;;;;;;5072852;28;20062;-72
2023/08/17 07:49:24;;;;;;;1999.90;999.90;;;24.80;99.90;;;;;;5072591;28;20540;-72
2023/08/17 07:51:49;;;;;;;1999.90;999.90;;;24.60;99.90;;;;;;5072614;28;20024;-72
2023/08/17 07:54:15;;;;;;;1999.90;999.90;;;24.70;99.90;;;;;;5072310;28;20395;-72
2023/08/17 07:56:41;;;;;;;1999.90;999.90;;;24.50;99.90;;;;;;5077857;28;20036;-73
2023/08/17 07:59:06;;;;;;;1999.90;999.90;;;24.50;99.90;;;;;;5071882;28;20029;-72
2023/08/17 08:01:32;;;;;;;1999.90;999.90;;;24.70;99.90;;;;;;5071216;28;20037;-72
2023/08/17 08:03:58;;;;;;;1999.90;999.90;;;25.10;99.90;;;;;;5072904;28;20067;-72
2023/08/17 08:06:23;;;;;;;1999.90;999.90;;;25.40;99.90;;;;;;5082908;28;20032;-72
2023/08/17 08:08:49;;;;;;;1999.90;999.90;;;25.40;99.90;;;;;;5068972;28;20032;-72
2023/08/17 08:11:15;;;;;;;1999.90;999.90;;;25.60;99.90;;;;;;5082869;28;20078;-73
2023/08/17 08:13:40;;;;;;;1999.90;999.90;;;26.20;99.90;;;;;;5075578;28;20101;-72
2023/08/17 08:16:06;;;;;;;1999.90;999.90;;;26.30;99.90;;;;;;5080638;28;20021;-72
2023/08/17 08:18:31;;;;;;;1999.90;999.90;;;26.30;99.90;;;;;;5083922;28;20036;-72
2023/08/17 08:20:57;;;;;;;1999.90;999.90;;;26.20;99.90;;;;;;5073904;28;20038;-72
2023/08/17 08:23:22;;;;;;;1999.90;999.90;;;25.80;99.90;;;;;;5063859;28;20028;-72
2023/08/17 08:25:48;;;;;;;1999.90;999.90;;;25.60;99.90;;;;;;5073781;28;20031;-72
2023/08/17 08:28:14;;;;;;;1999.90;999.90;;;26.50;99.90;;;;;;5078207;28;20032;-73
2023/08/17 08:30:39;;;;;;;1999.90;999.90;;;26.20;99.90;;;;;;5071985;28;20036;-73
2023/08/17 08:33:05;;;;;;;1999.90;999.90;;;26.30;99.90;;;;;;5070050;28;20024;-72
2023/08/17 08:35:31;;;;;;;1999.90;999.90;;;26.20;99.90;;;;;;5083238;28;20026;-72
2023/08/17 08:37:59;;;;;;;1999.90;999.90;;;26.10;99.90;;;;;;5069339;28;20031;-72
2023/08/17 08:40:29;;;;;;;1999.90;999.90;;;26.10;99.90;;;;;;5069249;28;20039;-73
2023/08/17 08:42:55;;;;;;;1999.90;999.90;;;26.00;99.90;;;;;;5071205;28;20036;-72
2023/08/17 08:45:23;;;;;;;1999.90;999.90;;;25.90;99.90;;;;;;5071494;28;20031;-73
2023/08/17 08:47:49;;;;;;;1999.90;999.90;;;26.10;99.90;;;;;;5070994;28;20025;-73
2023/08/17 08:50:18;;;;;;;1999.90;999.90;;;26.30;99.90;;;;;;5071949;28;20067;-73
2023/08/17 08:53:00;;;;;;;1999.90;999.90;;;26.50;99.90;;;;;;5069838;28;20033;-73
2023/08/17 08:55:30;;;;;;;1999.90;999.90;;;28.50;99.90;;;;;;5070160;28;20501;-73
2023/08/17 08:57:56;;;;;;;1999.90;999.90;;;29.20;99.90;;;;;;5082336;28;20035;-73
2023/08/17 09:00:24;;;;;;;1999.90;999.90;;;28.60;99.90;;;;;;5076574;28;20514;-73
2023/08/17 09:02:51;;;;;;;1999.90;999.90;;;28.40;99.90;;;;;;5075244;28;20044;-73
2023/08/17 09:05:17;;;;;;;1999.90;999.90;;;28.50;99.90;;;;;;5076471;28;21448;-73
2023/08/17 09:07:43;;;;;;;1999.90;999.90;;;29.50;99.90;;;;;;5067404;28;20032;-73
2023/08/17 09:10:12;;;;;;;1999.90;999.90;;;29.80;99.90;;;;;;5075028;28;20096;-73
2023/08/17 09:12:39;;;;;;;1999.90;999.90;;;29.20;99.90;;;;;;5072998;28;20099;-73
2023/08/17 09:15:05;;;;;;;1999.90;999.90;;;29.30;99.90;;;;;;5069582;28;20087;-73
2023/08/17 09:17:35;;;;;;;1999.90;999.90;;;30.80;99.90;;;;;;5069516;28;20086;-73
2023/08/17 09:20:01;;;;;;;1999.90;999.90;;;30.00;99.90;;;;;;5069184;28;20558;-73
2023/08/17 09:22:39;;;;;;;1999.90;999.90;;;30.50;99.90;;;;;;5077916;28;20134;-73
2023/08/17 09:25:05;;;;;;;1999.90;999.90;;;30.70;99.90;;;;;;5078411;28;20036;-73
2023/08/17 09:27:35;;;;;;;1999.90;999.90;;;30.60;99.90;;;;;;5079342;28;20056;-73
2023/08/17 09:30:04;;;;;;;1999.90;999.90;;;30.40;99.90;;;;;;5070466;28;20028;-73
2023/08/17 09:32:33;;;;;;;1999.90;999.90;;;30.10;99.90;;;;;;5063677;28;20418;-73
2023/08/17 09:35:04;;;;;;;1999.90;999.90;;;30.70;99.90;;;;;;5069754;28;20052;-73
2023/08/17 09:37:30;;;;;;;1999.90;999.90;;;30.50;99.90;;;;;;5103935;28;20054;-73
2023/08/17 09:39:56;;;;;;;1999.90;999.90;;;30.70;99.90;;;;;;5070045;28;20487;-73
2023/08/17 09:42:22;;;;;;;1999.90;999.90;;;31.50;99.90;;;;;;5069774;28;20576;-73
2023/08/17 09:44:49;;;;;;;1999.90;999.90;;;30.80;99.90;;;;;;5069421;28;20182;-73
2023/08/17 09:47:21;;;;;;;1999.90;999.90;;;29.90;99.90;;;;;;5065660;28;20081;-73
2023/08/17 09:49:53;;;;;;;1999.90;999.90;;;30.10;99.90;;;;;;5068982;28;20101;-73
2023/08/17 09:52:20;;;;;;;1999.90;999.90;;;30.50;99.90;;;;;;5069068;28;20069;-73
2023/08/17 09:54:49;;;;;;;1999.90;999.90;;;31.00;99.90;;;;;;5069406;28;20029;-73
2023/08/17 09:57:16;;;;;;;1999.90;999.90;;;32.10;99.90;;;;;;5068301;28;20109;-73
2023/08/17 09:59:42;;;;;;;1999.90;999.90;;;32.70;99.90;;;;;;5070760;28;20548;-73
2023/08/17 10:02:21;;;;;;;1999.90;999.90;;;31.70;99.90;;;;;;5067510;28;20230;-73
2023/08/17 10:04:52;;;;;;;1999.90;999.90;;;31.90;99.90;;;;;;5066703;28;20025;-73
2023/08/17 10:07:28;;;;;;;1999.90;999.90;;;31.80;99.90;;;;;;5070020;28;20013;-73
2023/08/17 10:10:03;;;;;;;1999.90;999.90;;;32.80;99.90;;;;;;5071881;28;20067;-73
2023/08/17 10:12:40;;;;;;;1999.90;999.90;;;32.20;99.90;;;;;;5066997;28;20039;-73
2023/08/17 10:15:10;;;;;;;1999.90;999.90;;;33.00;99.90;;;;;;5065874;28;20414;-73
2023/08/17 10:17:44;;;;;;;1999.90;999.90;;;34.90;99.90;;;;;;5066368;28;20062;-73
2023/08/17 10:20:10;;;;;;;1999.90;999.90;;;35.10;99.90;;;;;;5067950;28;20367;-73
2023/08/17 10:22:38;;;;;;;1999.90;999.90;;;35.10;99.90;;;;;;5067045;28;20030;-73
2023/08/17 10:25:07;;;;;;;1999.90;999.90;;;35.50;99.90;;;;;;5062470;28;20032;-73
2023/08/17 10:27:35;;;;;;;1999.90;999.90;;;36.20;99.90;;;;;;5064274;28;20487;-73
2023/08/17 10:30:01;;;;;;;1999.90;999.90;;;35.50;99.90;;;;;;5061970;28;20028;-73
2023/08/17 10:32:28;;;;;;;1999.90;999.90;;;35.90;99.90;;;;;;5067937;28;20032;-73
2023/08/17 10:34:54;;;;;;;1999.90;999.90;;;36.60;99.90;;;;;;5066806;28;20025;-73
2023/08/17 10:37:21;;;;;;;1999.90;999.90;;;35.90;99.90;;;;;;5071083;28;20056;-73
2023/08/17 10:39:48;;;;;;;1999.90;999.90;;;36.30;99.90;;;;;;5067962;28;20024;-73
2023/08/17 10:42:14;;;;;;;1999.90;999.90;;;34.90;99.90;;;;;;5076624;28;20036;-73
2023/08/17 10:44:44;;;;;;;1999.90;999.90;;;34.00;99.90;;;;;;5069401;28;20029;-73
2023/08/17 10:47:24;;;;;;;1999.90;999.90;;;33.60;99.90;;;;;;5066750;28;20035;-73
2023/08/17 10:50:04;;;;;;;1999.90;999.90;;;33.40;99.90;;;;;;5068586;28;20020;-73
2023/08/17 10:52:35;;;;;;;1999.90;999.90;;;33.60;99.90;;;;;;5067298;28;20089;-73
2023/08/17 10:55:06;;;;;;;1999.90;999.90;;;33.40;99.90;;;;;;5066272;28;20032;-73
2023/08/17 10:57:36;;;;;;;1999.90;999.90;;;33.60;99.90;;;;;;5070354;28;20379;-73
2023/08/17 11:00:26;;;;;;;1999.90;999.90;;;34.00;99.90;;;;;;5077579;28;20036;-73
2023/08/17 11:02:52;;;;;;;1999.90;999.90;;;33.50;99.90;;;;;;5069156;28;20126;-73
2023/08/17 11:05:37;;;;;;;1999.90;999.90;;;32.70;99.90;;;;;;5071109;28;20021;-73
2023/08/17 11:08:04;;;;;;;1999.90;999.90;;;33.20;99.90;;;;;;5065640;28;20029;-73
2023/08/17 11:10:30;;;;;;;1999.90;999.90;;;33.10;99.90;;;;;;5076394;28;20020;-73
2023/08/17 11:12:59;;;;;;;1999.90;999.90;;;33.80;99.90;;;;;;5083434;28;20483;-74
2023/08/17 11:15:26;;;;;;;1999.90;999.90;;;33.70;99.90;;;;;;5067842;28;20028;-73
2023/08/17 11:17:52;;;;;;;1999.90;999.90;;;33.50;99.90;;;;;;5070759;28;20041;-73
2023/08/17 11:20:18;;;;;;;1999.90;999.90;;;32.50;99.90;;;;;;5067053;28;20025;-73
2023/08/17 11:22:45;;;;;;;1999.90;999.90;;;32.30;99.90;;;;;;5068876;28;20044;-73
2023/08/17 11:25:11;;;;;;;1999.90;999.90;;;31.80;99.90;;;;;;5057272;28;20024;-74
2023/08/17 11:27:37;;;;;;;1999.90;999.90;;;32.00;99.90;;;;;;5068824;28;20035;-73
2023/08/17 11:30:03;;;;;;;1999.90;999.90;;;32.00;99.90;;;;;;5095984;28;20021;-73
2023/08/17 11:32:29;;;;;;;1999.90;999.90;;;32.30;99.90;;;;;;5069174;28;20033;-73
2023/08/17 11:34:55;;;;;;;1999.90;999.90;;;33.30;99.90;;;;;;5069782;28;20032;-73
2023/08/17 11:37:21;;;;;;;1999.90;999.90;;;34.30;99.90;;;;;;5064071;28;20032;-73
2023/08/17 11:39:47;;;;;;;1999.90;999.90;;;35.10;99.90;;;;;;5070578;28;20028;-74
2023/08/17 11:42:13;;;;;;;1999.90;999.90;;;34.60;99.90;;;;;;5072284;28;20492;-73
2023/08/17 11:44:39;;;;;;;1999.90;999.90;;;34.30;99.90;;;;;;5067251;28;20111;-73
2023/08/17 11:47:05;;;;;;;1999.90;999.90;;;33.60;99.90;;;;;;5072287;28;20515;-73
2023/08/17 11:49:31;;;;;;;1999.90;999.90;;;33.70;99.90;;;;;;5072960;28;20023;-73
2023/08/17 11:51:57;;;;;;;1999.90;999.90;;;32.90;99.90;;;;;;5072620;28;20099;-74
2023/08/17 11:54:22;;;;;;;1999.90;999.90;;;32.70;99.90;;;;;;5072468;28;20024;-73
2023/08/17 11:56:48;;;;;;;1999.90;999.90;;;33.00;99.90;;;;;;5069856;28;20403;-73